sensor_id;sensor_type;location;lat;lon;timestamp;pressure;altitude;pressure_sealevel;temperature;humidity
56074;BME280;41950;55.840;37.442;2022-09-01T00:01:24;98956.53;;;12.54;64.22
56074;BME280;41950;55.840;37.442;2022-09-01T00:03:53;98953.75;;;12.58;64.39
56074;BME280;41950;55.840;37.442;2022-09-01T00:06:21;98961.00;;;12.50;64.56
56074;BME280;41950;55.840;37.442;2022-09-01T00:08:56;98963.00;;;12.44;64.81
56074;BME280;41950;55.840;37.442;2022-09-01T00:11:23;98949.13;;;12.43;64.92
56074;BME280;41950;55.840;37.442;2022-09-01T00:13:51;98955.84;;;12.49;65.08
56074;BME280;41950;55.840;37.442;2022-09-01T00:16:18;98949.00;;;12.46;64.54
56074;BME280;41950;55.840;37.442;2022-09-01T00:18:48;98952.53;;;12.45;64.86
56074;BME280;41950;55.840;37.442;2022-09-01T00:21:16;98958.47;;;12.49;64.48
56074;BME280;41950;55.840;37.442;2022-09-01T00:23:42;98971.25;;;12.55;64.33
56074;BME280;41950;55.840;37.442;2022-09-01T00:26:08;98969.50;;;12.55;64.18
56074;BME280;41950;55.840;37.442;2022-09-01T00:28:35;98960.72;;;12.58;64.46
56074;BME280;41950;55.840;37.442;2022-09-01T00:31:02;98960.78;;;12.56;64.29
56074;BME280;41950;55.840;37.442;2022-09-01T00:33:29;98949.34;;;12.37;64.38
56074;BME280;41950;55.840;37.442;2022-09-01T00:35:55;98947.28;;;12.22;64.83
56074;BME280;41950;55.840;37.442;2022-09-01T00:38:20;98956.00;;;12.21;64.88
56074;BME280;41950;55.840;37.442;2022-09-01T00:40:46;98962.72;;;12.26;65.10
56074;BME280;41950;55.840;37.442;2022-09-01T00:43:23;98961.03;;;12.25;64.92
56074;BME280;41950;55.840;37.442;2022-09-01T00:46:01;98960.19;;;12.25;65.16
56074;BME280;41950;55.840;37.442;2022-09-01T00:48:26;98943.56;;;12.05;65.76
56074;BME280;41950;55.840;37.442;2022-09-01T00:50:52;98948.66;;;12.09;65.42
56074;BME280;41950;55.840;37.442;2022-09-01T00:53:18;98949.53;;;12.07;65.33
56074;BME280;41950;55.840;37.442;2022-09-01T00:55:44;98958.03;;;12.13;65.32
56074;BME280;41950;55.840;37.442;2022-09-01T00:58:10;98961.66;;;12.09;65.29
56074;BME280;41950;55.840;37.442;2022-09-01T01:00:37;98965.91;;;12.11;65.29
56074;BME280;41950;55.840;37.442;2022-09-01T01:03:12;98957.66;;;11.98;65.59
56074;BME280;41950;55.840;37.442;2022-09-01T01:05:45;98966.25;;;12.00;65.69
56074;BME280;41950;55.840;37.442;2022-09-01T01:08:13;98967.84;;;12.04;65.72
56074;BME280;41950;55.840;37.442;2022-09-01T01:10:44;98969.69;;;12.01;65.89
56074;BME280;41950;55.840;37.442;2022-09-01T01:13:12;98966.47;;;11.94;66.17
56074;BME280;41950;55.840;37.442;2022-09-01T01:15:40;98964.72;;;11.95;65.89
56074;BME280;41950;55.840;37.442;2022-09-01T01:18:11;98963.22;;;11.88;66.26
56074;BME280;41950;55.840;37.442;2022-09-01T01:20:37;98960.56;;;11.89;66.20
56074;BME280;41950;55.840;37.442;2022-09-01T01:23:32;98951.44;;;11.76;66.26
56074;BME280;41950;55.840;37.442;2022-09-01T01:26:04;98949.84;;;11.72;66.41
56074;BME280;41950;55.840;37.442;2022-09-01T01:28:32;98949.22;;;11.65;66.53
56074;BME280;41950;55.840;37.442;2022-09-01T01:31:10;98946.44;;;11.70;66.33
56074;BME280;41950;55.840;37.442;2022-09-01T01:33:40;98938.88;;;11.64;66.19
56074;BME280;41950;55.840;37.442;2022-09-01T01:36:14;98943.16;;;11.65;66.58
56074;BME280;41950;55.840;37.442;2022-09-01T01:38:43;98933.09;;;11.56;66.59
56074;BME280;41950;55.840;37.442;2022-09-01T01:41:10;98944.84;;;11.66;66.36
56074;BME280;41950;55.840;37.442;2022-09-01T01:43:36;98944.28;;;11.58;66.36
56074;BME280;41950;55.840;37.442;2022-09-01T01:46:05;98953.06;;;11.54;66.67
56074;BME280;41950;55.840;37.442;2022-09-01T01:48:33;98951.38;;;11.53;66.72
56074;BME280;41950;55.840;37.442;2022-09-01T01:51:02;98956.53;;;11.54;66.67
56074;BME280;41950;55.840;37.442;2022-09-01T01:53:29;98952.13;;;11.56;66.42
56074;BME280;41950;55.840;37.442;2022-09-01T01:55:55;98940.19;;;11.51;66.70
56074;BME280;41950;55.840;37.442;2022-09-01T01:58:22;98956.63;;;11.51;66.34
56074;BME280;41950;55.840;37.442;2022-09-01T02:00:51;98953.19;;;11.51;66.85
56074;BME280;41950;55.840;37.442;2022-09-01T02:03:19;98950.59;;;11.51;66.67
56074;BME280;41950;55.840;37.442;2022-09-01T02:05:52;98950.84;;;11.41;66.95
56074;BME280;41950;55.840;37.442;2022-09-01T02:08:19;98939.81;;;11.35;66.72
56074;BME280;41950;55.840;37.442;2022-09-01T02:10:48;98949.38;;;11.34;66.60
56074;BME280;41950;55.840;37.442;2022-09-01T02:13:16;98950.09;;;11.38;66.81
56074;BME280;41950;55.840;37.442;2022-09-01T02:15:49;98946.97;;;11.28;66.91
56074;BME280;41950;55.840;37.442;2022-09-01T02:18:18;98954.13;;;11.20;67.05
56074;BME280;41950;55.840;37.442;2022-09-01T02:20:46;98954.28;;;11.15;67.29
56074;BME280;41950;55.840;37.442;2022-09-01T02:23:12;98953.56;;;11.10;67.43
56074;BME280;41950;55.840;37.442;2022-09-01T02:25:41;98957.53;;;11.22;66.97
56074;BME280;41950;55.840;37.442;2022-09-01T02:28:13;98965.69;;;11.38;66.76
56074;BME280;41950;55.840;37.442;2022-09-01T02:30:43;98967.34;;;11.40;66.85
56074;BME280;41950;55.840;37.442;2022-09-01T02:33:13;98959.00;;;11.31;67.13
56074;BME280;41950;55.840;37.442;2022-09-01T02:35:44;98956.81;;;11.17;67.47
56074;BME280;41950;55.840;37.442;2022-09-01T02:38:10;98968.06;;;11.18;67.79
56074;BME280;41950;55.840;37.442;2022-09-01T02:40:39;98964.47;;;11.22;67.75
56074;BME280;41950;55.840;37.442;2022-09-01T02:43:09;98971.38;;;11.23;67.43
56074;BME280;41950;55.840;37.442;2022-09-01T02:45:36;98962.72;;;11.22;67.76
56074;BME280;41950;55.840;37.442;2022-09-01T02:48:03;98957.63;;;11.19;67.59
56074;BME280;41950;55.840;37.442;2022-09-01T02:50:35;98961.16;;;11.17;67.84
56074;BME280;41950;55.840;37.442;2022-09-01T02:53:01;98965.63;;;11.13;67.79
56074;BME280;41950;55.840;37.442;2022-09-01T02:55:27;98957.22;;;11.05;67.82
56074;BME280;41950;55.840;37.442;2022-09-01T02:57:52;98950.19;;;11.08;67.86
56074;BME280;41950;55.840;37.442;2022-09-01T03:00:22;98944.69;;;11.18;67.39
56074;BME280;41950;55.840;37.442;2022-09-01T03:02:55;98943.19;;;11.10;67.69
56074;BME280;41950;55.840;37.442;2022-09-01T03:05:24;98953.44;;;11.15;67.73
56074;BME280;41950;55.840;37.442;2022-09-01T03:07:59;98950.72;;;11.18;67.41
56074;BME280;41950;55.840;37.442;2022-09-01T03:10:32;98954.22;;;11.17;67.70
56074;BME280;41950;55.840;37.442;2022-09-01T03:13:03;98955.31;;;11.10;67.70
56074;BME280;41950;55.840;37.442;2022-09-01T03:15:31;98955.31;;;11.10;67.83
56074;BME280;41950;55.840;37.442;2022-09-01T03:17:59;98953.28;;;11.20;67.95
56074;BME280;41950;55.840;37.442;2022-09-01T03:20:28;98956.69;;;11.22;67.64
56074;BME280;41950;55.840;37.442;2022-09-01T03:22:54;98957.78;;;11.14;67.61
56074;BME280;41950;55.840;37.442;2022-09-01T03:25:23;98961.06;;;11.20;67.72
56074;BME280;41950;55.840;37.442;2022-09-01T03:27:52;98962.78;;;11.21;67.22
56074;BME280;41950;55.840;37.442;2022-09-01T03:30:18;98962.88;;;11.18;67.33
56074;BME280;41950;55.840;37.442;2022-09-01T03:32:44;98960.13;;;11.22;67.60
56074;BME280;41950;55.840;37.442;2022-09-01T03:35:10;98946.38;;;11.19;67.39
56074;BME280;41950;55.840;37.442;2022-09-01T03:37:37;98957.25;;;11.31;67.36
56074;BME280;41950;55.840;37.442;2022-09-01T03:40:05;98963.25;;;11.33;67.20
56074;BME280;41950;55.840;37.442;2022-09-01T03:42:34;98960.59;;;11.35;67.11
56074;BME280;41950;55.840;37.442;2022-09-01T03:45:01;98958.06;;;11.33;67.09
56074;BME280;41950;55.840;37.442;2022-09-01T03:47:38;98961.56;;;11.32;66.85
56074;BME280;41950;55.840;37.442;2022-09-01T03:50:10;98962.41;;;11.33;66.66
56074;BME280;41950;55.840;37.442;2022-09-01T03:52:56;98964.00;;;11.37;66.69
56074;BME280;41950;55.840;37.442;2022-09-01T03:55:25;98956.09;;;11.40;66.26
56074;BME280;41950;55.840;37.442;2022-09-01T03:57:53;98951.59;;;11.45;65.84
56074;BME280;41950;55.840;37.442;2022-09-01T04:00:22;98956.06;;;11.41;65.54
56074;BME280;41950;55.840;37.442;2022-09-01T04:02:50;98960.44;;;11.39;65.73
56074;BME280;41950;55.840;37.442;2022-09-01T04:05:18;98944.06;;;11.37;66.17
56074;BME280;41950;55.840;37.442;2022-09-01T04:07:47;98947.31;;;11.44;65.65
56074;BME280;41950;55.840;37.442;2022-09-01T04:10:16;98947.25;;;11.45;65.64
56074;BME280;41950;55.840;37.442;2022-09-01T04:12:43;98951.59;;;11.45;65.27
56074;BME280;41950;55.840;37.442;2022-09-01T04:15:10;98952.41;;;11.47;64.60
56074;BME280;41950;55.840;37.442;2022-09-01T04:17:36;98947.16;;;11.49;63.68
56074;BME280;41950;55.840;37.442;2022-09-01T04:20:21;98956.53;;;11.54;63.78
56074;BME280;41950;55.840;37.442;2022-09-01T04:22:48;98952.06;;;11.58;63.35
56074;BME280;41950;55.840;37.442;2022-09-01T04:25:18;98962.38;;;11.61;62.80
56074;BME280;41950;55.840;37.442;2022-09-01T04:27:52;98954.47;;;11.64;62.27
56074;BME280;41950;55.840;37.442;2022-09-01T04:30:22;98953.47;;;11.68;62.59
56074;BME280;41950;55.840;37.442;2022-09-01T04:32:51;98947.31;;;11.70;62.31
56074;BME280;41950;55.840;37.442;2022-09-01T04:35:19;98950.53;;;11.77;61.55
56074;BME280;41950;55.840;37.442;2022-09-01T04:38:00;98963.81;;;11.69;61.80
56074;BME280;41950;55.840;37.442;2022-09-01T04:40:27;98950.75;;;11.71;61.25
56074;BME280;41950;55.840;37.442;2022-09-01T04:42:52;98941.41;;;11.65;61.42
56074;BME280;41950;55.840;37.442;2022-09-01T04:45:18;98953.41;;;11.69;61.54
56074;BME280;41950;55.840;37.442;2022-09-01T04:47:47;98948.19;;;11.69;60.58
56074;BME280;41950;55.840;37.442;2022-09-01T04:50:13;98945.28;;;11.80;60.57
56074;BME280;41950;55.840;37.442;2022-09-01T04:52:45;98944.28;;;11.84;60.56
56074;BME280;41950;55.840;37.442;2022-09-01T04:55:13;98947.56;;;11.89;60.03
56074;BME280;41950;55.840;37.442;2022-09-01T04:57:45;98958.72;;;11.93;59.84
56074;BME280;41950;55.840;37.442;2022-09-01T05:00:16;98951.75;;;11.93;58.51
56074;BME280;41950;55.840;37.442;2022-09-01T05:02:57;98955.94;;;11.97;58.41
56074;BME280;41950;55.840;37.442;2022-09-01T05:05:28;98944.75;;;11.95;58.05
56074;BME280;41950;55.840;37.442;2022-09-01T05:07:54;98951.44;;;12.02;57.51
56074;BME280;41950;55.840;37.442;2022-09-01T05:10:21;98942.38;;;11.89;57.35
56074;BME280;41950;55.840;37.442;2022-09-01T05:12:48;98947.34;;;11.95;57.39
56074;BME280;41950;55.840;37.442;2022-09-01T05:15:20;98950.00;;;11.94;57.31
56074;BME280;41950;55.840;37.442;2022-09-01T05:17:45;98938.53;;;11.99;56.63
56074;BME280;41950;55.840;37.442;2022-09-01T05:20:11;98960.69;;;12.11;56.79
56074;BME280;41950;55.840;37.442;2022-09-01T05:22:38;98958.78;;;12.16;56.48
56074;BME280;41950;55.840;37.442;2022-09-01T05:25:07;98958.59;;;12.21;56.16
56074;BME280;41950;55.840;37.442;2022-09-01T05:27:42;98968.00;;;12.25;56.18
56074;BME280;41950;55.840;37.442;2022-09-01T05:30:17;98967.78;;;12.31;56.29
56074;BME280;41950;55.840;37.442;2022-09-01T05:32:43;98965.13;;;12.32;56.46
56074;BME280;41950;55.840;37.442;2022-09-01T05:35:13;98971.19;;;12.33;56.40
56074;BME280;41950;55.840;37.442;2022-09-01T05:37:39;98966.00;;;12.33;56.89
56074;BME280;41950;55.840;37.442;2022-09-01T05:40:08;98966.84;;;12.33;56.82
56074;BME280;41950;55.840;37.442;2022-09-01T05:42:44;98965.28;;;12.28;56.64
56074;BME280;41950;55.840;37.442;2022-09-01T05:45:10;98971.38;;;12.27;56.83
56074;BME280;41950;55.840;37.442;2022-09-01T05:47:39;98965.88;;;12.36;56.20
56074;BME280;41950;55.840;37.442;2022-09-01T05:50:06;98969.16;;;12.41;56.22
56074;BME280;41950;55.840;37.442;2022-09-01T05:52:38;98968.97;;;12.46;56.11
56074;BME280;41950;55.840;37.442;2022-09-01T05:55:05;98968.13;;;12.45;56.09
56074;BME280;41950;55.840;37.442;2022-09-01T05:57:34;98957.56;;;12.50;55.70
56074;BME280;41950;55.840;37.442;2022-09-01T06:00:03;98957.25;;;12.57;55.28
56074;BME280;41950;55.840;37.442;2022-09-01T06:02:37;98965.03;;;12.59;54.38
56074;BME280;41950;55.840;37.442;2022-09-01T06:05:05;98955.81;;;12.50;54.23
56074;BME280;41950;55.840;37.442;2022-09-01T06:07:31;98966.03;;;12.55;54.74
56074;BME280;41950;55.840;37.442;2022-09-01T06:09:57;98955.81;;;12.50;54.65
56074;BME280;41950;55.840;37.442;2022-09-01T06:12:26;98964.88;;;12.63;54.57
56074;BME280;41950;55.840;37.442;2022-09-01T06:14:55;98961.63;;;12.80;54.08
56074;BME280;41950;55.840;37.442;2022-09-01T06:17:23;98958.63;;;12.91;54.46
56074;BME280;41950;55.840;37.442;2022-09-01T06:19:53;98953.31;;;12.94;54.49
56074;BME280;41950;55.840;37.442;2022-09-01T06:22:27;98959.84;;;13.04;53.66
56074;BME280;41950;55.840;37.442;2022-09-01T06:24:52;98960.44;;;13.11;53.24
56074;BME280;41950;55.840;37.442;2022-09-01T06:27:19;98966.03;;;13.02;53.24
56074;BME280;41950;55.840;37.442;2022-09-01T06:29:48;98958.28;;;13.00;53.07
56074;BME280;41950;55.840;37.442;2022-09-01T06:32:17;98941.03;;;12.74;52.85
56074;BME280;41950;55.840;37.442;2022-09-01T06:34:46;98960.34;;;12.68;53.75
56074;BME280;41950;55.840;37.442;2022-09-01T06:37:16;98971.00;;;12.62;53.96
56074;BME280;41950;55.840;37.442;2022-09-01T06:39:42;98983.28;;;12.57;54.69
56074;BME280;41950;55.840;37.442;2022-09-01T06:42:08;98977.88;;;12.40;55.96
56074;BME280;41950;55.840;37.442;2022-09-01T06:44:38;98975.50;;;12.34;56.21
56074;BME280;41950;55.840;37.442;2022-09-01T06:47:03;98988.50;;;12.34;56.20
56074;BME280;41950;55.840;37.442;2022-09-01T06:49:29;98964.81;;;12.17;56.17
56074;BME280;41950;55.840;37.442;2022-09-01T06:52:03;98971.84;;;12.15;56.42
56074;BME280;41950;55.840;37.442;2022-09-01T06:54:30;98977.56;;;12.24;56.44
56074;BME280;41950;55.840;37.442;2022-09-01T06:57:00;98978.34;;;12.26;56.32
56074;BME280;41950;55.840;37.442;2022-09-01T06:59:30;98984.84;;;12.40;56.28
56074;BME280;41950;55.840;37.442;2022-09-01T07:02:00;98991.56;;;12.45;55.03
56074;BME280;41950;55.840;37.442;2022-09-01T07:04:28;98979.78;;;12.58;55.04
56074;BME280;41950;55.840;37.442;2022-09-01T07:06:56;98992.66;;;12.63;55.20
56074;BME280;41950;55.840;37.442;2022-09-01T07:09:22;98998.00;;;12.58;54.85
56074;BME280;41950;55.840;37.442;2022-09-01T07:11:48;98988.16;;;12.43;55.07
56074;BME280;41950;55.840;37.442;2022-09-01T07:14:14;98999.03;;;12.54;54.88
56074;BME280;41950;55.840;37.442;2022-09-01T07:16:41;98981.34;;;12.64;53.48
56074;BME280;41950;55.840;37.442;2022-09-01T07:19:11;98983.59;;;12.73;53.03
56074;BME280;41950;55.840;37.442;2022-09-01T07:21:40;98985.19;;;12.77;51.51
56074;BME280;41950;55.840;37.442;2022-09-01T07:24:09;98983.13;;;12.85;50.47
56074;BME280;41950;55.840;37.442;2022-09-01T07:26:36;98988.00;;;12.94;50.26
56074;BME280;41950;55.840;37.442;2022-09-01T07:29:04;99003.16;;;13.07;49.78
56074;BME280;41950;55.840;37.442;2022-09-01T07:31:38;98993.81;;;13.01;50.04
56074;BME280;41950;55.840;37.442;2022-09-01T07:34:07;99000.84;;;12.99;49.89
56074;BME280;41950;55.840;37.442;2022-09-01T07:36:34;99003.50;;;12.97;49.95
56074;BME280;41950;55.840;37.442;2022-09-01T07:39:02;98992.31;;;12.95;49.62
56074;BME280;41950;55.840;37.442;2022-09-01T07:41:28;98990.19;;;13.05;49.74
56074;BME280;41950;55.840;37.442;2022-09-01T07:43:56;98980.91;;;12.98;49.62
56074;BME280;41950;55.840;37.442;2022-09-01T07:46:26;98999.16;;;13.21;49.05
56074;BME280;41950;55.840;37.442;2022-09-01T07:48:54;99000.44;;;13.33;49.04
56074;BME280;41950;55.840;37.442;2022-09-01T07:51:22;98999.47;;;13.36;49.11
56074;BME280;41950;55.840;37.442;2022-09-01T07:53:48;99007.72;;;13.25;49.27
56074;BME280;41950;55.840;37.442;2022-09-01T07:56:16;98997.28;;;13.25;48.85
56074;BME280;41950;55.840;37.442;2022-09-01T07:58:44;98993.78;;;13.26;49.26
56074;BME280;41950;55.840;37.442;2022-09-01T08:01:12;98998.19;;;13.46;49.48
56074;BME280;41950;55.840;37.442;2022-09-01T08:03:39;99002.38;;;13.50;49.06
56074;BME280;41950;55.840;37.442;2022-09-01T08:06:07;99008.75;;;13.43;48.43
56074;BME280;41950;55.840;37.442;2022-09-01T08:08:35;99008.91;;;13.38;48.35
56074;BME280;41950;55.840;37.442;2022-09-01T08:11:04;98999.69;;;13.29;48.60
56074;BME280;41950;55.840;37.442;2022-09-01T08:13:34;99007.59;;;13.28;48.46
56074;BME280;41950;55.840;37.442;2022-09-01T08:16:05;99012.72;;;13.29;48.60
56074;BME280;41950;55.840;37.442;2022-09-01T08:18:32;99004.13;;;13.27;49.05
56074;BME280;41950;55.840;37.442;2022-09-01T08:20:58;99010.63;;;13.17;49.26
56074;BME280;41950;55.840;37.442;2022-09-01T08:23:23;99011.94;;;13.04;49.52
56074;BME280;41950;55.840;37.442;2022-09-01T08:25:52;99007.22;;;13.14;49.32
56074;BME280;41950;55.840;37.442;2022-09-01T08:28:18;99002.91;;;13.13;49.21
56074;BME280;41950;55.840;37.442;2022-09-01T08:30:46;99006.44;;;13.12;49.24
56074;BME280;41950;55.840;37.442;2022-09-01T08:33:15;99010.25;;;13.26;48.70
56074;BME280;41950;55.840;37.442;2022-09-01T08:35:43;99007.94;;;13.41;48.74
56074;BME280;41950;55.840;37.442;2022-09-01T08:38:10;98998.75;;;13.54;48.78
56074;BME280;41950;55.840;37.442;2022-09-01T08:40:35;98989.22;;;13.53;48.14
56074;BME280;41950;55.840;37.442;2022-09-01T08:43:36;99003.34;;;13.47;47.70
56074;BME280;41950;55.840;37.442;2022-09-01T08:46:18;99011.44;;;13.40;47.60
56074;BME280;41950;55.840;37.442;2022-09-01T08:49:03;99000.75;;;13.47;47.81
56074;BME280;41950;55.840;37.442;2022-09-01T08:54:31;99005.13;;;13.67;47.63
56074;BME280;41950;55.840;37.442;2022-09-01T08:57:05;99007.22;;;13.59;47.94
56074;BME280;41950;55.840;37.442;2022-09-01T08:59:31;99004.00;;;13.52;48.33
56074;BME280;41950;55.840;37.442;2022-09-01T09:05:00;99006.38;;;13.58;47.59
56074;BME280;41950;55.840;37.442;2022-09-01T09:10:21;99005.03;;;13.70;46.70
56074;BME280;41950;55.840;37.442;2022-09-01T09:15:37;99018.81;;;13.74;47.12
56074;BME280;41950;55.840;37.442;2022-09-01T09:21:38;99013.28;;;13.59;47.10
56074;BME280;41950;55.840;37.442;2022-09-01T09:24:33;99018.94;;;13.71;47.15
56074;BME280;41950;55.840;37.442;2022-09-01T09:29:52;99003.03;;;13.77;46.98
56074;BME280;41950;55.840;37.442;2022-09-01T09:32:19;99025.00;;;13.91;46.85
56074;BME280;41950;55.840;37.442;2022-09-01T09:34:46;99025.25;;;13.85;46.50
56074;BME280;41950;55.840;37.442;2022-09-01T09:39:44;99040.31;;;13.57;47.28
56074;BME280;41950;55.840;37.442;2022-09-01T09:42:11;99047.53;;;13.50;47.19
56074;BME280;41950;55.840;37.442;2022-09-01T09:44:49;99044.25;;;13.23;48.51
56074;BME280;41950;55.840;37.442;2022-09-01T09:47:43;99044.44;;;13.19;49.41
56074;BME280;41950;55.840;37.442;2022-09-01T09:52:36;99056.56;;;13.42;49.74
56074;BME280;41950;55.840;37.442;2022-09-01T09:55:27;99057.19;;;13.48;49.93
56074;BME280;41950;55.840;37.442;2022-09-01T09:58:10;99040.91;;;13.64;49.25
56074;BME280;41950;55.840;37.442;2022-09-01T10:00:38;99052.00;;;13.90;48.70
56074;BME280;41950;55.840;37.442;2022-09-01T10:03:07;99043.16;;;14.15;47.21
56074;BME280;41950;55.840;37.442;2022-09-01T10:05:48;99049.72;;;14.25;47.14
56074;BME280;41950;55.840;37.442;2022-09-01T10:10:51;99044.91;;;14.57;46.15
56074;BME280;41950;55.840;37.442;2022-09-01T10:13:19;99032.44;;;14.43;45.66
56074;BME280;41950;55.840;37.442;2022-09-01T10:15:51;99037.13;;;14.35;46.00
56074;BME280;41950;55.840;37.442;2022-09-01T10:18:20;99052.69;;;14.16;46.54
56074;BME280;41950;55.840;37.442;2022-09-01T10:21:16;99043.81;;;14.00;47.19
56074;BME280;41950;55.840;37.442;2022-09-01T10:23:50;99049.03;;;14.00;47.36
56074;BME280;41950;55.840;37.442;2022-09-01T10:26:22;99052.25;;;13.84;47.48
56074;BME280;41950;55.840;37.442;2022-09-01T10:31:27;99061.38;;;13.74;47.74
56074;BME280;41950;55.840;37.442;2022-09-01T10:33:54;99061.13;;;13.80;47.76
56074;BME280;41950;55.840;37.442;2022-09-01T10:36:20;99056.50;;;13.87;47.72
56074;BME280;41950;55.840;37.442;2022-09-01T10:38:47;99053.69;;;13.91;47.53
56074;BME280;41950;55.840;37.442;2022-09-01T10:44:09;99060.09;;;13.84;46.84
56074;BME280;41950;55.840;37.442;2022-09-01T10:49:01;99052.38;;;13.81;47.10
56074;BME280;41950;55.840;37.442;2022-09-01T10:53:56;99067.19;;;14.23;46.08
56074;BME280;41950;55.840;37.442;2022-09-01T10:56:41;99054.66;;;14.31;45.85
56074;BME280;41950;55.840;37.442;2022-09-01T11:07:34;99056.31;;;14.34;45.05
56074;BME280;41950;55.840;37.442;2022-09-01T11:10:15;99075.13;;;14.20;45.61
56074;BME280;41950;55.840;37.442;2022-09-01T11:15:42;99071.81;;;14.16;45.80
56074;BME280;41950;55.840;37.442;2022-09-01T11:18:24;99062.34;;;14.14;45.67
56074;BME280;41950;55.840;37.442;2022-09-01T11:20:51;99060.53;;;14.36;45.21
56074;BME280;41950;55.840;37.442;2022-09-01T11:23:26;99061.81;;;14.48;44.84
56074;BME280;41950;55.840;37.442;2022-09-01T11:36:02;99066.78;;;14.12;45.08
56074;BME280;41950;55.840;37.442;2022-09-01T11:38:42;99054.47;;;13.93;45.21
56074;BME280;41950;55.840;37.442;2022-09-01T11:43:50;99054.13;;;14.03;45.63
56074;BME280;41950;55.840;37.442;2022-09-01T11:46:29;99049.81;;;14.02;45.53
56074;BME280;41950;55.840;37.442;2022-09-01T11:49:00;99062.88;;;14.02;45.63
56074;BME280;41950;55.840;37.442;2022-09-01T11:51:38;99049.88;;;14.00;45.97
56074;BME280;41950;55.840;37.442;2022-09-01T11:54:06;99058.06;;;14.33;45.26
56074;BME280;41950;55.840;37.442;2022-09-01T11:56:32;99047.59;;;14.74;43.89
56074;BME280;41950;55.840;37.442;2022-09-01T11:58:57;99035.56;;;15.28;43.60
56074;BME280;41950;55.840;37.442;2022-09-01T12:01:34;99041.09;;;15.95;42.39
56074;BME280;41950;55.840;37.442;2022-09-01T12:04:22;99036.56;;;16.84;40.37
56074;BME280;41950;55.840;37.442;2022-09-01T12:09:34;99033.81;;;16.69;38.98
56074;BME280;41950;55.840;37.442;2022-09-01T12:12:01;99027.13;;;16.47;39.78
56074;BME280;41950;55.840;37.442;2022-09-01T12:14:27;99034.91;;;16.31;39.75
56074;BME280;41950;55.840;37.442;2022-09-01T12:16:59;99028.16;;;16.44;39.44
56074;BME280;41950;55.840;37.442;2022-09-01T12:19:31;99028.59;;;16.35;39.55
56074;BME280;41950;55.840;37.442;2022-09-01T12:22:06;99033.50;;;16.41;39.42
56074;BME280;41950;55.840;37.442;2022-09-01T12:24:44;99027.94;;;16.82;37.54
56074;BME280;41950;55.840;37.442;2022-09-01T12:27:11;99021.56;;;16.53;38.61
56074;BME280;41950;55.840;37.442;2022-09-01T12:29:37;99017.84;;;16.24;38.35
56074;BME280;41950;55.840;37.442;2022-09-01T12:32:04;99033.63;;;16.05;39.02
56074;BME280;41950;55.840;37.442;2022-09-01T12:37:20;99024.34;;;15.63;39.68
56074;BME280;41950;55.840;37.442;2022-09-01T12:39:48;99030.28;;;15.67;40.26
56074;BME280;41950;55.840;37.442;2022-09-01T12:49:59;99021.88;;;15.77;39.81
56074;BME280;41950;55.840;37.442;2022-09-01T12:52:26;99023.72;;;15.75;39.98
56074;BME280;41950;55.840;37.442;2022-09-01T12:57:33;99018.28;;;15.80;39.84
56074;BME280;41950;55.840;37.442;2022-09-01T13:02:36;99014.66;;;15.83;38.87
56074;BME280;41950;55.840;37.442;2022-09-01T13:05:23;99020.72;;;15.83;39.00
56074;BME280;41950;55.840;37.442;2022-09-01T13:07:54;99012.81;;;15.85;39.12
56074;BME280;41950;55.840;37.442;2022-09-01T13:10:22;99018.03;;;15.85;39.31
56074;BME280;41950;55.840;37.442;2022-09-01T13:12:49;99011.81;;;15.70;39.61
56074;BME280;41950;55.840;37.442;2022-09-01T13:15:16;99029.84;;;15.93;40.28
56074;BME280;41950;55.840;37.442;2022-09-01T13:17:42;99008.81;;;16.12;39.67
56074;BME280;41950;55.840;37.442;2022-09-01T13:20:08;99015.75;;;16.13;39.97
56074;BME280;41950;55.840;37.442;2022-09-01T13:22:35;99003.38;;;16.17;39.70
56074;BME280;41950;55.840;37.442;2022-09-01T13:25:02;99019.09;;;16.17;39.44
56074;BME280;41950;55.840;37.442;2022-09-01T13:27:29;98995.44;;;16.01;39.80
56074;BME280;41950;55.840;37.442;2022-09-01T13:29:54;99001.03;;;16.11;39.46
56074;BME280;41950;55.840;37.442;2022-09-01T13:32:21;99008.22;;;16.07;39.59
56074;BME280;41950;55.840;37.442;2022-09-01T13:34:48;99009.53;;;15.98;39.76
56074;BME280;41950;55.840;37.442;2022-09-01T13:37:18;99000.09;;;15.77;40.00
56074;BME280;41950;55.840;37.442;2022-09-01T13:39:45;99007.13;;;15.76;39.72
56074;BME280;41950;55.840;37.442;2022-09-01T13:42:12;99007.34;;;15.72;39.89
56074;BME280;41950;55.840;37.442;2022-09-01T13:44:38;99010.66;;;15.75;40.00
56074;BME280;41950;55.840;37.442;2022-09-01T13:47:04;99019.13;;;15.81;40.01
56074;BME280;41950;55.840;37.442;2022-09-01T13:49:33;99005.25;;;15.61;40.67
56074;BME280;41950;55.840;37.442;2022-09-01T13:51:58;99008.03;;;15.57;41.45
56074;BME280;41950;55.840;37.442;2022-09-01T13:54:24;99011.19;;;15.46;41.55
56074;BME280;41950;55.840;37.442;2022-09-01T13:56:52;99016.72;;;15.40;42.23
56074;BME280;41950;55.840;37.442;2022-09-01T13:59:18;99011.63;;;15.37;42.05
56074;BME280;41950;55.840;37.442;2022-09-01T14:01:43;99006.25;;;15.40;42.41
56074;BME280;41950;55.840;37.442;2022-09-01T14:04:10;99024.19;;;15.29;42.80
56074;BME280;41950;55.840;37.442;2022-09-01T14:06:41;99022.66;;;15.25;42.99
56074;BME280;41950;55.840;37.442;2022-09-01T14:09:13;99017.50;;;15.23;43.34
56074;BME280;41950;55.840;37.442;2022-09-01T14:11:40;99032.13;;;15.08;43.41
56074;BME280;41950;55.840;37.442;2022-09-01T14:14:09;99019.13;;;14.88;43.81
56074;BME280;41950;55.840;37.442;2022-09-01T14:16:34;99040.41;;;14.79;46.12
56074;BME280;41950;55.840;37.442;2022-09-01T14:19:00;99074.84;;;14.68;48.57
56074;BME280;41950;55.840;37.442;2022-09-01T14:21:26;99084.81;;;14.38;52.30